Time;durP1;ratioP1;P1;durP2;ratioP2;P2;SDS_P1;SDS_P2;PMS_P1;PMS_P2;Temp;Humidity;BMP_temperature;BMP_pressure;BME280_temperature;BME280_humidity;BME280_pressure;Samples;Min_cycle;Max_cycle;Signal;HPM_P1;HPM_P2
2022/02/08 00:00:19;;;;;;;9.56;5.83;;;;;;;;;;361045;146;857744;-57
2022/02/08 00:01:21;;;;;;;8.36;5.23;;;;;;;;;;362977;146;858131;-55
2022/02/08 00:02:23;;;;;;;8.84;5.36;;;;;;;;;;363535;146;857375;-55
2022/02/08 00:03:25;;;;;;;9.49;5.59;;;;;;;;;;363881;146;856316;-55
2022/02/08 00:04:30;;;;;;;10.43;6.07;;;;;;;;;;364879;146;858874;-55
2022/02/08 00:05:31;;;;;;;9.44;6.26;;;;;;;;;;364433;145;858187;-55
2022/02/08 00:06:42;;;;;;;8.01;5.23;;;;;;;;;;362704;145;865016;-55
2022/02/08 00:07:39;;;;;;;9.32;4.37;;;;;;;;;;361607;146;857226;-55
2022/02/08 00:08:41;;;;;;;8.91;5.59;;;;;;;;;;362716;146;857345;-56
2022/02/08 00:09:42;;;;;;;9.18;5.26;;;;;;;;;;355867;149;866724;-55
2022/02/08 00:10:44;;;;;;;8.20;5.16;;;;;;;;;;363553;145;862855;-56
2022/02/08 00:11:45;;;;;;;8.40;5.01;;;;;;;;;;362424;146;857607;-55
2022/02/08 00:12:47;;;;;;;8.92;4.99;;;;;;;;;;364614;146;864899;-56
2022/02/08 00:13:48;;;;;;;10.86;4.96;;;;;;;;;;362345;145;857239;-55
2022/02/08 00:14:52;;;;;;;9.74;5.37;;;;;;;;;;363504;146;857512;-55
2022/02/08 00:15:53;;;;;;;8.69;5.14;;;;;;;;;;363791;146;859247;-55
2022/02/08 00:16:55;;;;;;;9.29;5.90;;;;;;;;;;362207;145;857259;-56
2022/02/08 00:17:57;;;;;;;8.46;4.75;;;;;;;;;;364243;146;865774;-56
2022/02/08 00:18:58;;;;;;;9.14;5.61;;;;;;;;;;361594;146;863866;-55
2022/02/08 00:20:00;;;;;;;8.39;4.83;;;;;;;;;;364416;146;856307;-56
2022/02/08 00:21:01;;;;;;;7.13;5.04;;;;;;;;;;363270;146;856851;-56
2022/02/08 00:22:03;;;;;;;7.74;4.77;;;;;;;;;;362742;146;856194;-56
2022/02/08 00:23:05;;;;;;;7.64;4.48;;;;;;;;;;363507;146;856396;-56
2022/02/08 00:24:06;;;;;;;8.59;5.31;;;;;;;;;;363183;145;856202;-56
2022/02/08 00:25:08;;;;;;;8.31;5.01;;;;;;;;;;364274;146;856367;-56
2022/02/08 00:26:11;;;;;;;8.40;5.57;;;;;;;;;;363551;146;856093;-56
2022/02/08 00:27:12;;;;;;;6.83;4.63;;;;;;;;;;363124;145;856142;-56
2022/02/08 00:28:14;;;;;;;8.75;5.39;;;;;;;;;;362104;146;856013;-56
2022/02/08 00:29:16;;;;;;;7.81;5.28;;;;;;;;;;365767;146;856759;-56
2022/02/08 00:30:18;;;;;;;7.30;4.89;;;;;;;;;;361671;146;864322;-56
2022/02/08 00:31:20;;;;;;;7.15;4.63;;;;;;;;;;363661;146;856028;-56
2022/02/08 00:32:21;;;;;;;8.68;5.08;;;;;;;;;;363419;146;863817;-56
2022/02/08 00:33:23;;;;;;;6.75;4.64;;;;;;;;;;364472;146;863818;-56
2022/02/08 00:36:08;;;;;;;7.82;4.18;;;;;;;1.77;78.94;98866.81;369592;142;880550;-55
2022/02/08 00:37:10;;;;;;;5.51;3.37;;;;;;;1.68;78.91;98863.32;355045;150;857206;-55
2022/02/08 00:38:12;;;;;;;5.70;2.99;;;;;;;1.68;78.72;98875.20;362461;146;856190;-56
2022/02/08 00:39:14;;;;;;;6.25;3.45;;;;;;;1.70;78.72;98868.42;364089;147;865251;-55
2022/02/08 00:40:19;;;;;;;5.88;3.31;;;;;;;1.72;78.34;98876.95;363143;147;857199;-56
2022/02/08 00:41:23;;;;;;;6.07;3.78;;;;;;;1.77;78.27;98875.30;363288;146;857261;-56
2022/02/08 00:42:25;;;;;;;4.58;3.16;;;;;;;1.86;78.21;98883.05;361524;147;866607;-56
2022/02/08 00:43:34;;;;;;;4.53;3.07;;;;;;;1.96;77.93;98878.04;363375;147;863880;-56
2022/02/08 00:44:38;;;;;;;4.28;2.96;;;;;;;2.06;77.55;98881.55;363214;146;857586;-55
2022/02/08 00:45:51;;;;;;;3.93;2.53;;;;;;;2.13;76.89;98890.97;363174;147;858343;-55
2022/02/08 00:47:53;;;;;;;4.04;2.67;;;;;;;2.25;76.16;98888.53;363310;147;866715;-55
2022/02/08 00:48:59;;;;;;;3.76;2.85;;;;;;;2.31;76.02;98880.08;362848;147;856415;-55
2022/02/08 00:50:06;;;;;;;3.94;2.54;;;;;;;2.41;75.94;98891.20;363406;147;864743;-55
2022/02/08 00:51:03;;;;;;;3.49;2.44;;;;;;;;;;363470;147;862097;-57
2022/02/08 00:52:10;;;;;;;5.38;3.08;;;;;;;;;;363405;146;866603;-57
2022/02/08 00:53:09;;;;;;;5.01;2.70;;;;;;;;;;360746;147;857263;-55
2022/02/08 00:54:11;;;;;;;5.86;2.94;;;;;;;;;;358458;147;858959;-57
2022/02/08 00:55:12;;;;;;;6.14;3.08;;;;;;;;;;355578;149;865107;-57
2022/02/08 00:56:14;;;;;;;4.26;2.95;;;;;;;;;;355419;150;864774;-56
2022/02/08 00:57:16;;;;;;;5.04;3.05;;;;;;;;;;353935;150;858824;-57
2022/02/08 00:58:18;;;;;;;5.51;3.02;;;;;;;;;;357375;150;857842;-57
2022/02/08 00:59:20;;;;;;;8.36;3.28;;;;;;;;;;354817;149;860228;-56
2022/02/08 01:00:24;;;;;;;6.64;3.37;;;;;;;;;;355959;150;860276;-55
2022/02/08 01:01:26;;;;;;;4.93;3.27;;;;;;;;;;355315;150;858062;-55
2022/02/08 01:02:28;;;;;;;5.59;3.21;;;;;;;;;;355053;149;865459;-55
2022/02/08 01:03:30;;;;;;;5.11;3.11;;;;;;;;;;356926;150;857208;-55
2022/02/08 01:04:33;;;;;;;5.44;3.46;;;;;;;;;;348097;153;857243;-55
2022/02/08 01:05:39;;;;;;;4.88;3.45;;;;;;;;;;356467;149;864706;-55
2022/02/08 01:06:40;;;;;;;6.31;3.41;;;;;;;;;;357390;150;857062;-55
2022/02/08 01:07:42;;;;;;;6.06;3.85;;;;;;;;;;355487;150;864962;-55
2022/02/08 01:08:43;;;;;;;6.05;3.27;;;;;;;;;;355596;149;859475;-55
2022/02/08 01:09:51;;;;;;;6.16;3.69;;;;;;;;;;356587;149;857728;-55
2022/02/08 01:10:49;;;;;;;5.26;3.36;;;;;;;;;;355968;150;863045;-55
2022/02/08 01:11:54;;;;;;;8.03;3.63;;;;;;;;;;356158;150;857673;-55
2022/02/08 01:12:55;;;;;;;6.04;3.72;;;;;;;;;;356472;149;856073;-55
2022/02/08 01:13:56;;;;;;;6.93;3.86;;;;;;;;;;357333;150;857083;-55
2022/02/08 01:14:58;;;;;;;4.26;3.26;;;;;;;;;;350203;144;863239;-55
2022/02/08 01:16:00;;;;;;;5.32;3.35;;;;;;;;;;343504;153;863020;-55
2022/02/08 01:17:02;;;;;;;5.40;3.64;;;;;;;;;;346449;153;856758;-55
2022/02/08 01:18:03;;;;;;;6.69;3.68;;;;;;;;;;345073;154;861068;-55
2022/02/08 01:19:06;;;;;;;6.71;3.80;;;;;;;;;;345282;153;864711;-55
2022/02/08 01:20:13;;;;;;;4.45;3.53;;;;;;;;;;343971;153;864882;-54
2022/02/08 01:21:12;;;;;;;5.99;3.78;;;;;;;;;;343714;154;858651;-58
2022/02/08 01:22:13;;;;;;;7.39;3.89;;;;;;;;;;344370;153;857695;-55
2022/02/08 01:23:15;;;;;;;6.20;3.77;;;;;;;;;;343769;154;865183;-58
2022/02/08 01:24:17;;;;;;;7.04;3.90;;;;;;;;;;339843;155;864765;-57
2022/02/08 01:25:27;;;;;;;6.63;3.69;;;;;;;;;;339251;155;857477;-55
2022/02/08 01:26:23;;;;;;;5.61;3.33;;;;;;;;;;338321;156;859234;-55
2022/02/08 01:27:29;;;;;;;6.66;4.11;;;;;;;;;;337343;156;857306;-55
2022/02/08 01:28:44;;;;;;;5.84;3.38;;;;;;;;;;343301;154;863928;-55
2022/02/08 01:29:52;;;;;;;6.48;3.78;;;;;;;;;;336810;155;858270;-56
2022/02/08 01:30:56;;;;;;;4.44;3.51;;;;;;;;;;336862;155;858888;-55
2022/02/08 01:31:49;;;;;;;5.44;3.51;;;;;;;;;;338321;155;857772;-55
2022/02/08 01:34:26;;;;;;;5.53;3.03;;;;;;;;;;339212;155;856552;-57
2022/02/08 01:36:38;;;;;;;5.83;3.67;;;;;;;;;;344768;153;857143;-56
2022/02/08 01:38:52;;;;;;;6.66;3.42;;;;;;;;;;340113;156;858763;-56
2022/02/08 01:40:04;;;;;;;4.83;3.04;;;;;;;;;;339008;154;858330;-56
2022/02/08 01:42:36;;;;;;;4.89;3.09;;;;;;;;;;343288;153;864826;-55
2022/02/08 01:43:52;;;;;;;4.82;2.94;;;;;;;;;;336295;154;860350;-55
2022/02/08 01:44:57;;;;;;;5.86;2.92;;;;;;;;;;341152;154;857938;-55
2022/02/08 01:45:58;;;;;;;7.38;3.16;;;;;;;;;;341467;153;857240;-55
2022/02/08 01:48:04;;;;;;;3.58;2.61;;;;;;;;;;344826;153;856549;-55
2022/02/08 01:49:00;;;;;;;5.34;3.12;;;;;;;;;;343164;154;857549;-55
2022/02/08 01:50:11;;;;;;;4.36;2.66;;;;;;;;;;343719;153;856521;-55
2022/02/08 01:51:09;;;;;;;3.87;2.69;;;;;;;;;;344745;153;857530;-56
2022/02/08 01:52:10;;;;;;;4.69;2.63;;;;;;;;;;344025;153;858046;-56
2022/02/08 01:53:12;;;;;;;3.42;2.31;;;;;;;;;;345201;153;865133;-56
2022/02/08 01:54:13;;;;;;;5.54;2.53;;;;;;;;;;339981;155;863693;-56
2022/02/08 01:55:16;;;;;;;4.36;3.19;;;;;;;;;;343668;153;860124;-56
2022/02/08 01:56:19;;;;;;;3.20;2.47;;;;;;;;;;344566;153;859189;-56
2022/02/08 01:57:20;;;;;;;5.01;2.81;;;;;;;;;;338797;156;866637;-56
2022/02/08 01:58:22;;;;;;;3.33;2.36;;;;;;;;;;332660;157;866109;-56
2022/02/08 01:59:23;;;;;;;5.99;2.58;;;;;;;;;;336414;157;858584;-55
2022/02/08 02:00:27;;;;;;;4.29;2.73;;;;;;;;;;337000;157;857428;-55
2022/02/08 02:01:29;;;;;;;4.29;2.36;;;;;;;;;;335380;157;857386;-55
2022/02/08 02:02:30;;;;;;;3.55;2.38;;;;;;;;;;336740;157;857180;-55
2022/02/08 02:03:32;;;;;;;3.49;2.70;;;;;;;;;;336000;157;859003;-55
2022/02/08 02:04:34;;;;;;;4.17;2.86;;;;;;;;;;334384;157;866608;-57
2022/02/08 02:05:35;;;;;;;3.86;3.04;;;;;;;;;;335025;157;858012;-54
2022/02/08 02:06:37;;;;;;;3.43;2.56;;;;;;;;;;344421;153;857272;-55
2022/02/08 02:07:47;;;;;;;4.41;2.81;;;;;;;;;;344409;153;864834;-55
2022/02/08 02:08:44;;;;;;;4.27;2.67;;;;;;;;;;338673;155;866615;-55
2022/02/08 02:09:46;;;;;;;5.25;2.86;;;;;;;;;;343686;154;860331;-55
2022/02/08 02:10:48;;;;;;;4.21;2.45;;;;;;;;;;344922;153;864960;-57
2022/02/08 02:11:51;;;;;;;6.25;2.67;;;;;;;;;;345709;153;857406;-55
2022/02/08 02:12:57;;;;;;;4.54;2.72;;;;;;;;;;335417;158;856420;-55
2022/02/08 02:13:59;;;;;;;5.76;3.05;;;;;;;;;;345070;153;860012;-55
2022/02/08 02:15:04;;;;;;;5.11;2.71;;;;;;;;;;334401;158;858705;-54
2022/02/08 02:16:06;;;;;;;3.69;2.67;;;;;;;;;;345008;153;857194;-55
2022/02/08 02:17:08;;;;;;;5.46;3.14;;;;;;;;;;345490;154;863977;-55
2022/02/08 02:18:10;;;;;;;3.39;2.59;;;;;;;;;;345614;153;856659;-55
2022/02/08 02:19:12;;;;;;;2.82;2.19;;;;;;;;;;346281;153;858762;-55
2022/02/08 02:20:15;;;;;;;3.74;2.49;;;;;;;;;;344855;154;864508;-55
2022/02/08 02:21:17;;;;;;;2.81;2.23;;;;;;;;;;344132;153;858007;-56
2022/02/08 02:22:19;;;;;;;6.47;2.69;;;;;;;;;;345172;153;858522;-55
2022/02/08 02:23:20;;;;;;;4.67;2.49;;;;;;;;;;346099;153;857246;-56
2022/02/08 02:24:22;;;;;;;3.38;2.43;;;;;;;;;;344342;154;859545;-55
2022/02/08 02:25:25;;;;;;;4.14;2.89;;;;;;;;;;342373;153;864761;-55
2022/02/08 02:26:28;;;;;;;2.70;2.02;;;;;;;;;;345899;153;857292;-55
2022/02/08 02:27:30;;;;;;;4.09;2.36;;;;;;;;;;345594;154;858944;-55
2022/02/08 02:28:33;;;;;;;3.73;2.36;;;;;;;;;;344981;154;865284;-56
2022/02/08 02:29:35;;;;;;;3.36;2.44;;;;;;;;;;338889;156;857555;-55
2022/02/08 02:30:36;;;;;;;4.13;2.70;;;;;;;;;;340502;156;857453;-55
2022/02/08 02:31:38;;;;;;;4.97;2.91;;;;;;;;;;347139;151;857357;-55
2022/02/08 02:32:39;;;;;;;3.59;2.22;;;;;;;;;;346952;153;859072;-54
2022/02/08 02:33:42;;;;;;;3.80;2.56;;;;;;;;;;345476;153;858481;-55
2022/02/08 02:34:48;;;;;;;8.05;2.51;;;;;;;;;;344430;154;866728;-54
2022/02/08 02:35:50;;;;;;;4.54;2.61;;;;;;;;;;345618;153;863761;-55
2022/02/08 02:36:53;;;;;;;4.00;2.61;;;;;;;;;;344589;153;856462;-55
2022/02/08 02:37:57;;;;;;;3.69;2.57;;;;;;;;;;345414;154;856551;-55
2022/02/08 02:38:58;;;;;;;5.56;2.83;;;;;;;;;;344561;153;857278;-55
2022/02/08 02:40:00;;;;;;;5.61;2.09;;;;;;;;;;344956;153;857181;-54
2022/02/08 02:41:02;;;;;;;5.15;2.51;;;;;;;;;;346287;154;858935;-55
2022/02/08 02:42:05;;;;;;;3.31;2.26;;;;;;;;;;345379;154;857256;-55
2022/02/08 02:43:09;;;;;;;3.60;2.26;;;;;;;;;;344672;153;859686;-55
2022/02/08 02:44:12;;;;;;;5.04;2.35;;;;;;;;;;345440;153;856774;-55
2022/02/08 02:45:14;;;;;;;5.17;2.87;;;;;;;;;;344235;154;857323;-58
2022/02/08 02:46:16;;;;;;;3.44;2.45;;;;;;;;;;339585;156;857275;-57
2022/02/08 02:47:18;;;;;;;4.03;2.26;;;;;;;;;;338944;154;858992;-57
2022/02/08 02:48:19;;;;;;;4.91;2.21;;;;;;;;;;345038;154;860269;-56
2022/02/08 02:49:22;;;;;;;3.34;2.29;;;;;;;;;;345318;153;857364;-56
2022/02/08 02:50:24;;;;;;;2.89;1.99;;;;;;;;;;344453;153;857446;-56
2022/02/08 02:51:26;;;;;;;2.09;1.61;;;;;;;;;;345330;153;863726;-56
2022/02/08 02:52:28;;;;;;;2.88;2.35;;;;;;;;;;344558;153;865000;-57
2022/02/08 02:53:30;;;;;;;3.72;2.34;;;;;;;;;;344997;153;857188;-57
2022/02/08 02:54:31;;;;;;;3.50;2.62;;;;;;;;;;345310;153;857471;-58
2022/02/08 02:55:34;;;;;;;4.50;2.26;;;;;;;;;;345353;153;857793;-57
2022/02/08 02:56:36;;;;;;;2.32;1.94;;;;;;;;;;344684;153;857391;-57
2022/02/08 02:57:38;;;;;;;4.12;2.16;;;;;;;;;;345442;153;857689;-57
2022/02/08 02:58:39;;;;;;;3.02;2.14;;;;;;;;;;344213;154;863210;-57
2022/02/08 02:59:43;;;;;;;2.74;2.13;;;;;;;;;;345726;154;864592;-57
2022/02/08 03:00:52;;;;;;;4.28;2.26;;;;;;;;;;345480;153;856314;-57
2022/02/08 03:03:33;;;;;;;2.87;2.04;;;;;;;;;;345830;153;859399;-55
2022/02/08 03:04:42;;;;;;;2.81;2.20;;;;;;;;;;344372;153;858202;-55
2022/02/08 03:18:36;;;;;;;4.67;1.83;;;;;;;;;;343369;154;858828;-56
2022/02/08 03:31:55;;;;;;;2.99;1.54;;;;;;;1.45;75.91;99075.62;372829;142;875085;-57
2022/02/08 03:32:57;;;;;;;2.39;1.77;;;;;;;1.36;76.00;99084.84;363579;146;858081;-55
2022/02/08 03:33:58;;;;;;;1.51;1.29;;;;;;;1.36;75.91;99087.40;362985;145;856383;-55
2022/02/08 03:35:00;;;;;;;5.09;1.39;;;;;;;1.35;75.80;99090.78;362541;145;856298;-56
2022/02/08 03:36:02;;;;;;;1.35;1.15;;;;;;;;;;362918;145;864710;-55
2022/02/08 03:37:04;;;;;;;3.13;1.53;;;;;;;;;;363158;146;859463;-55
2022/02/08 03:38:08;;;;;;;2.24;1.35;;;;;;;;;;362513;146;857291;-55
2022/02/08 03:39:17;;;;;;;2.86;1.37;;;;;;;;;;362827;145;857513;-55
2022/02/08 03:40:30;;;;;;;2.94;1.68;;;;;;;;;;355590;148;861453;-55
2022/02/08 03:41:23;;;;;;;1.97;1.35;;;;;;;;;;361355;146;857106;-55
2022/02/08 03:42:34;;;;;;;3.29;1.63;;;;;;;;;;363821;145;857175;-55
2022/02/08 03:43:31;;;;;;;2.64;1.58;;;;;;;;;;362252;146;857148;-55
2022/02/08 03:44:33;;;;;;;5.51;2.24;;;;;;;;;;363858;145;857871;-55
2022/02/08 03:45:34;;;;;;;3.07;1.70;;;;;;;;;;362096;145;858180;-55
2022/02/08 03:46:36;;;;;;;2.60;1.49;;;;;;;;;;362456;145;858923;-55
2022/02/08 03:47:38;;;;;;;2.38;1.71;;;;;;;;;;363446;146;865081;-55
2022/02/08 03:48:42;;;;;;;2.04;1.73;;;;;;;;;;363625;145;857453;-55
2022/02/08 03:49:43;;;;;;;3.79;1.69;;;;;;;;;;363569;145;864979;-55
2022/02/08 03:50:50;;;;;;;3.58;1.76;;;;;;;;;;362935;144;860131;-56
2022/02/08 03:51:54;;;;;;;2.13;1.72;;;;;;;;;;360560;147;864530;-56
2022/02/08 03:52:54;;;;;;;2.41;1.64;;;;;;;;;;364014;145;859599;-56
2022/02/08 03:53:56;;;;;;;2.59;1.76;;;;;;;;;;362990;145;858953;-55
2022/02/08 03:54:57;;;;;;;3.21;1.95;;;;;;;;;;355954;149;864510;-55
2022/02/08 03:55:59;;;;;;;2.18;1.69;;;;;;;;;;363559;146;857476;-55
2022/02/08 03:57:02;;;;;;;2.56;1.45;;;;;;;;;;362430;145;858784;-54
2022/02/08 03:58:04;;;;;;;2.47;1.69;;;;;;;;;;362103;146;866047;-55
2022/02/08 03:59:06;;;;;;;2.36;1.96;;;;;;;;;;356118;149;857737;-53
2022/02/08 04:00:08;;;;;;;4.37;2.09;;;;;;;;;;363709;145;864198;-55
2022/02/08 04:03:21;;;;;;;2.82;1.89;;;;;;;;;;361632;145;856628;-55
2022/02/08 04:05:33;;;;;;;4.18;1.78;;;;;;;;;;363268;145;864646;-55
2022/02/08 04:06:31;;;;;;;2.23;1.60;;;;;;;;;;361932;145;857204;-55
2022/02/08 04:07:46;;;;;;;2.68;1.50;;;;;;;;;;363012;145;858673;-56
2022/02/08 04:08:36;;;;;;;3.41;1.77;;;;;;;;;;360271;146;863620;-55
2022/02/08 04:09:38;;;;;;;3.15;1.86;;;;;;;;;;361448;145;857279;-54
2022/02/08 04:10:42;;;;;;;2.42;1.41;;;;;;;;;;362337;145;859091;-55
2022/02/08 04:11:54;;;;;;;2.92;1.80;;;;;;;;;;362256;146;858777;-56
2022/02/08 04:13:12;;;;;;;5.62;1.39;;;;;;;;;;359991;146;857712;-55
2022/02/08 04:14:27;;;;;;;2.52;1.73;;;;;;;;;;361103;145;863627;-55
2022/02/08 04:16:34;;;;;;;2.35;1.70;;;;;;;;;;363504;146;856158;-56
2022/02/08 04:19:11;;;;;;;2.17;1.70;;;;;;;;;;342524;154;857902;-58
2022/02/08 04:33:43;;;;;;;2.92;1.94;;;;;;;;;;362295;146;857713;-56
2022/02/08 04:37:08;;;;;;;2.06;1.68;;;;;;;;;;364472;145;856667;-56
2022/02/08 04:38:03;;;;;;;2.92;1.71;;;;;;;;;;360659;145;857302;-57
2022/02/08 04:39:14;;;;;;;2.49;1.73;;;;;;;;;;360779;145;863536;-57
2022/02/08 04:41:38;;;;;;;2.18;1.91;;;;;;;;;;362494;145;856668;-56
2022/02/08 04:56:24;;;;;;;2.34;1.37;;;;;;;0.93;75.70;99227.73;362472;145;858779;-56
2022/02/08 04:58:35;;;;;;;2.05;1.30;;;;;;;0.97;75.60;99237.16;363942;146;864795;-56
2022/02/08 05:01:00;;;;;;;2.48;1.41;;;;;;;1.09;75.11;99239.10;361143;145;856894;-57
2022/02/08 05:02:13;;;;;;;1.93;1.36;;;;;;;1.16;74.94;99248.59;361430;146;857864;-56
2022/02/08 05:26:56;;;;;;;2.39;1.35;;;;;;;;;;366401;144;864608;-56
2022/02/08 05:36:17;;;;;;;4.11;1.39;;;;;;;;;;361409;146;856922;-55
2022/02/08 05:43:49;;;;;;;2.33;1.43;;;;;;;;;;360513;147;856745;-55
2022/02/08 05:44:46;;;;;;;3.36;1.57;;;;;;;;;;362398;147;856654;-56
2022/02/08 05:46:57;;;;;;;1.63;1.19;;;;;;;;;;364572;147;856638;-58
2022/02/08 05:48:03;;;;;;;2.21;1.09;;;;;;;;;;362455;147;857223;-57
2022/02/08 05:49:05;;;;;;;2.51;1.46;;;;;;;;;;363024;146;863846;-56
2022/02/08 05:50:10;;;;;;;4.98;1.69;;;;;;;;;;359835;146;856062;-56
2022/02/08 05:51:17;;;;;;;2.66;1.42;;;;;;;;;;359809;147;863594;-57
2022/02/08 05:52:33;;;;;;;3.63;1.80;;;;;;;;;;361980;147;857003;-58
2022/02/08 05:53:31;;;;;;;4.89;1.31;;;;;;;;;;361313;146;857135;-58
2022/02/08 05:54:32;;;;;;;5.09;1.57;;;;;;;;;;361074;146;856617;-58
2022/02/08 05:55:34;;;;;;;4.05;1.75;;;;;;;;;;360480;146;856472;-58
2022/02/08 05:56:36;;;;;;;5.42;1.78;;;;;;;;;;361681;147;863599;-58
2022/02/08 05:57:38;;;;;;;3.06;1.68;;;;;;;;;;360719;147;856317;-56
2022/02/08 05:58:43;;;;;;;4.69;1.81;;;;;;;;;;362925;147;862074;-57
2022/02/08 05:59:45;;;;;;;2.76;1.59;;;;;;;;;;362237;146;863840;-57
2022/02/08 06:00:47;;;;;;;3.05;2.01;;;;;;;;;;361772;147;856295;-58
2022/02/08 06:01:48;;;;;;;3.52;1.65;;;;;;;;;;362482;147;856554;-58
2022/02/08 06:02:50;;;;;;;2.97;1.73;;;;;;;;;;361718;146;856898;-56
2022/02/08 06:03:52;;;;;;;2.77;1.49;;;;;;;;;;361424;146;856469;-58
2022/02/08 06:04:54;;;;;;;3.95;1.48;;;;;;;;;;360789;147;856608;-57
2022/02/08 06:05:55;;;;;;;3.25;1.61;;;;;;;;;;361523;147;856389;-56
2022/02/08 06:06:57;;;;;;;3.09;1.38;;;;;;;;;;363086;147;863547;-55
2022/02/08 06:07:59;;;;;;;2.77;1.03;;;;;;;;;;362527;146;856299;-56
2022/02/08 06:09:00;;;;;;;5.35;1.82;;;;;;;;;;361378;147;863962;-56
2022/02/08 06:10:02;;;;;;;1.29;1.07;;;;;;;;;;361124;146;856298;-56
2022/02/08 06:11:13;;;;;;;3.51;1.50;;;;;;;;;;361484;147;856771;-56
2022/02/08 06:12:08;;;;;;;2.41;1.46;;;;;;;;;;360589;147;856161;-58
2022/02/08 06:13:09;;;;;;;2.57;1.40;;;;;;;;;;363816;147;856248;-58
2022/02/08 06:14:11;;;;;;;3.49;1.41;;;;;;;;;;360607;146;856518;-55
2022/02/08 06:15:15;;;;;;;2.99;1.61;;;;;;;;;;360796;146;863479;-57
2022/02/08 06:16:18;;;;;;;2.71;1.15;;;;;;;;;;363086;147;858509;-57
2022/02/08 06:17:20;;;;;;;6.34;1.40;;;;;;;;;;360656;147;856841;-56
2022/02/08 06:18:21;;;;;;;3.06;1.66;;;;;;;;;;354690;149;863579;-58
2022/02/08 06:19:23;;;;;;;3.74;1.51;;;;;;;;;;362171;147;863764;-58
2022/02/08 06:20:25;;;;;;;4.88;1.73;;;;;;;;;;361486;147;856974;-59
2022/02/08 06:21:27;;;;;;;3.93;1.63;;;;;;;;;;362414;147;856347;-57
2022/02/08 06:22:28;;;;;;;6.04;1.59;;;;;;;;;;360852;146;863692;-60
2022/02/08 06:23:30;;;;;;;5.45;2.19;;;;;;;;;;361440;147;856177;-60
2022/02/08 06:24:31;;;;;;;2.88;1.50;;;;;;;;;;362406;147;856124;-58
2022/02/08 06:25:33;;;;;;;3.50;1.72;;;;;;;;;;362554;146;856063;-60
2022/02/08 06:26:36;;;;;;;1.91;1.42;;;;;;;;;;360606;147;856332;-58
2022/02/08 06:27:39;;;;;;;3.31;1.57;;;;;;;;;;360858;147;856711;-61
2022/02/08 06:28:41;;;;;;;2.58;1.11;;;;;;;;;;362268;146;863424;-62
2022/02/08 06:29:43;;;;;;;3.10;1.64;;;;;;;;;;360725;146;856261;-59
2022/02/08 06:30:47;;;;;;;3.12;1.38;;;;;;;;;;362118;147;856518;-58
2022/02/08 06:31:48;;;;;;;3.63;1.44;;;;;;;;;;363291;147;857572;-58
2022/02/08 06:32:51;;;;;;;3.24;1.31;;;;;;;;;;361383;146;863442;-58
2022/02/08 06:33:53;;;;;;;3.49;1.29;;;;;;;;;;363173;147;863439;-59
2022/02/08 06:34:56;;;;;;;2.12;1.43;;;;;;;;;;362036;147;856040;-60
2022/02/08 06:35:58;;;;;;;3.65;1.50;;;;;;;;;;362800;147;864657;-60
2022/02/08 06:37:07;;;;;;;4.48;1.67;;;;;;;;;;361177;146;856653;-60
2022/02/08 06:38:04;;;;;;;2.34;1.68;;;;;;;;;;361653;147;856682;-58
2022/02/08 06:39:05;;;;;;;3.61;1.69;;;;;;;;;;361621;147;856615;-57
2022/02/08 06:40:08;;;;;;;2.11;1.36;;;;;;;;;;363572;146;856684;-60
2022/02/08 06:41:10;;;;;;;5.03;1.93;;;;;;;;;;362944;147;864023;-59
2022/02/08 06:42:12;;;;;;;2.88;1.59;;;;;;;;;;360474;147;864350;-60
2022/02/08 06:43:13;;;;;;;5.45;1.64;;;;;;;;;;361144;146;856305;-59
2022/02/08 06:44:15;;;;;;;4.38;1.71;;;;;;;;;;362935;146;856178;-59
2022/02/08 06:45:17;;;;;;;3.24;1.49;;;;;;;;;;362330;147;863597;-60
2022/02/08 06:46:19;;;;;;;3.58;1.70;;;;;;;;;;363113;146;856196;-60
2022/02/08 06:47:20;;;;;;;4.19;1.60;;;;;;;;;;361393;146;861223;-61
2022/02/08 06:48:22;;;;;;;3.61;2.23;;;;;;;;;;363008;147;857597;-60
2022/02/08 06:49:24;;;;;;;2.10;1.39;;;;;;;;;;362540;147;856374;-58
2022/02/08 06:50:25;;;;;;;2.29;1.63;;;;;;;;;;360905;147;856497;-60
2022/02/08 06:51:27;;;;;;;4.25;1.68;;;;;;;;;;360996;146;864029;-57
2022/02/08 06:52:29;;;;;;;2.68;1.59;;;;;;;;;;360735;147;856772;-58
2022/02/08 06:53:30;;;;;;;1.70;1.48;;;;;;;;;;361483;147;857377;-59
2022/02/08 06:54:32;;;;;;;3.53;1.54;;;;;;;;;;363911;146;856183;-60
2022/02/08 06:55:34;;;;;;;1.14;0.88;;;;;;;;;;360622;147;863509;-60
2022/02/08 06:56:35;;;;;;;2.47;1.75;;;;;;;;;;363988;147;856164;-59
2022/02/08 06:57:49;;;;;;;3.36;1.61;;;;;;;;;;362217;146;856165;-60
2022/02/08 06:58:58;;;;;;;2.99;1.53;;;;;;;;;;361996;146;856449;-60
2022/02/08 06:59:52;;;;;;;4.94;1.69;;;;;;;;;;362365;147;856995;-58
2022/02/08 07:00:59;;;;;;;4.91;1.64;;;;;;;;;;361638;146;856445;-58
2022/02/08 07:01:56;;;;;;;3.91;1.87;;;;;;;;;;360649;146;863388;-58
2022/02/08 07:02:59;;;;;;;3.34;1.39;;;;;;;;;;361463;147;856610;-59
2022/02/08 07:04:01;;;;;;;3.78;1.60;;;;;;;;;;357474;150;863445;-59
2022/02/08 07:05:02;;;;;;;2.60;1.24;;;;;;;;;;357051;149;856215;-59
2022/02/08 07:06:06;;;;;;;4.14;1.71;;;;;;;;;;362282;146;856183;-60
2022/02/08 07:07:12;;;;;;;2.83;1.55;;;;;;;;;;362679;147;856561;-59
2022/02/08 07:08:11;;;;;;;4.31;1.57;;;;;;;;;;363220;146;856400;-59
2022/02/08 07:09:12;;;;;;;2.46;1.44;;;;;;;;;;362287;146;856622;-60
2022/02/08 07:10:15;;;;;;;4.06;1.33;;;;;;;;;;361710;147;864360;-58
2022/02/08 07:11:17;;;;;;;1.95;1.35;;;;;;;;;;363246;147;856003;-60
2022/02/08 07:12:19;;;;;;;3.08;1.25;;;;;;;;;;363397;146;856418;-60
2022/02/08 07:13:20;;;;;;;2.55;1.33;;;;;;;;;;362168;146;856113;-59
2022/02/08 07:14:27;;;;;;;2.18;1.86;;;;;;;;;;361231;147;856323;-60
2022/02/08 07:15:25;;;;;;;3.56;1.53;;;;;;;;;;362458;147;856238;-57
2022/02/08 07:16:28;;;;;;;3.73;1.54;;;;;;;;;;360438;147;856594;-59
2022/02/08 07:17:29;;;;;;;3.20;1.65;;;;;;;;;;357670;148;856603;-59
2022/02/08 07:18:31;;;;;;;4.22;2.66;;;;;;;;;;359991;147;864068;-57
2022/02/08 07:19:32;;;;;;;4.27;1.54;;;;;;;;;;359742;147;857214;-59
2022/02/08 07:20:34;;;;;;;2.16;1.37;;;;;;;;;;358632;147;856251;-59
2022/02/08 07:21:38;;;;;;;3.28;1.32;;;;;;;;;;359851;148;856048;-58
2022/02/08 07:22:40;;;;;;;4.51;1.30;;;;;;;;;;358778;148;865333;-59
2022/02/08 07:23:41;;;;;;;2.88;1.54;;;;;;;;;;360269;147;856074;-58
2022/02/08 07:24:43;;;;;;;2.36;1.82;;;;;;;;;;358655;148;863671;-57
2022/02/08 07:25:45;;;;;;;3.42;1.47;;;;;;;;;;359555;148;856446;-59
2022/02/08 07:26:46;;;;;;;3.99;1.63;;;;;;;;;;359067;147;863534;-60
2022/02/08 07:27:48;;;;;;;4.33;1.67;;;;;;;;;;360888;147;863773;-58
2022/02/08 07:28:50;;;;;;;3.58;1.61;;;;;;;;;;362153;147;856259;-57
2022/02/08 07:29:53;;;;;;;4.01;1.82;;;;;;;;;;358689;147;856699;-58
2022/02/08 07:31:07;;;;;;;2.46;1.54;;;;;;;;;;357184;147;856587;-59
2022/02/08 07:32:05;;;;;;;4.03;1.56;;;;;;;;;;357290;147;856123;-61
2022/02/08 07:33:06;;;;;;;3.15;1.61;;;;;;;;;;359032;148;856422;-59
2022/02/08 07:34:20;;;;;;;2.41;1.60;;;;;;;;;;357552;148;864178;-57
2022/02/08 07:35:26;;;;;;;3.49;1.79;;;;;;;;;;358965;148;862533;-56
2022/02/08 07:36:28;;;;;;;3.08;1.73;;;;;;;;;;358524;148;857529;-56
2022/02/08 07:37:45;;;;;;;3.14;1.59;;;;;;;;;;355602;148;864220;-58
2022/02/08 07:38:39;;;;;;;3.72;1.73;;;;;;;;;;354427;147;856653;-58
2022/02/08 07:39:53;;;;;;;7.28;1.92;;;;;;;;;;359020;148;856587;-58
2022/02/08 07:41:35;;;;;;;2.24;1.23;;;;;;;;;;353767;148;856655;-58
2022/02/08 07:41:47;;;;;;;3.76;1.56;;;;;;;;;;355600;147;856687;-59
2022/02/08 07:42:49;;;;;;;3.29;1.57;;;;;;;;;;359009;148;863495;-59
2022/02/08 07:43:51;;;;;;;5.27;1.68;;;;;;;;;;357796;148;863575;-57
2022/02/08 07:44:52;;;;;;;6.35;1.65;;;;;;;;;;361633;147;856343;-58
2022/02/08 07:45:55;;;;;;;3.31;1.77;;;;;;;;;;358558;148;856140;-57
2022/02/08 07:46:56;;;;;;;3.61;1.95;;;;;;;;;;359948;147;863552;-57
2022/02/08 07:47:58;;;;;;;5.52;1.90;;;;;;;;;;357452;148;856808;-57
2022/02/08 07:49:01;;;;;;;3.87;2.49;;;;;;;;;;358552;147;856816;-58
2022/02/08 07:50:03;;;;;;;4.54;1.69;;;;;;;;;;356073;148;863793;-59
2022/02/08 07:51:04;;;;;;;3.95;1.61;;;;;;;;;;357341;148;856252;-61
2022/02/08 07:52:06;;;;;;;2.95;1.67;;;;;;;;;;359273;148;856023;-59
2022/02/08 07:53:09;;;;;;;4.84;1.93;;;;;;;;;;358940;148;859848;-58
2022/02/08 07:54:11;;;;;;;3.61;1.56;;;;;;;;;;356865;147;863827;-58
2022/02/08 07:55:13;;;;;;;2.59;1.55;;;;;;;;;;357814;148;856283;-60
2022/02/08 07:56:15;;;;;;;3.99;1.69;;;;;;;;;;358291;148;863717;-59
2022/02/08 07:57:17;;;;;;;4.39;1.71;;;;;;;;;;357139;147;856080;-60
2022/02/08 07:58:18;;;;;;;3.02;1.67;;;;;;;;;;359373;148;856261;-60
2022/02/08 07:59:20;;;;;;;3.91;1.69;;;;;;;;;;359138;148;858152;-59